Time;durP1;ratioP1;P1;durP2;ratioP2;P2;SDS_P1;SDS_P2;PMS_P1;PMS_P2;Temp;Humidity;BMP_temperature;BMP_pressure;BME280_temperature;BME280_humidity;BME280_pressure;Samples;Min_cycle;Max_cycle;Signal;HPM_P1;HPM_P2
2021/12/26 00:01:13;;;;;;;41.20;19.08;;;3.20;62.70;;;;;;5028654;28;20064;-75
2021/12/26 00:03:42;;;;;;;36.00;18.00;;;3.10;62.70;;;;;;5030767;28;20175;-75
2021/12/26 00:06:13;;;;;;;38.47;18.70;;;3.10;62.60;;;;;;5031983;28;20083;-75
2021/12/26 00:08:44;;;;;;;39.10;19.08;;;3.20;62.90;;;;;;5029697;28;20044;-75
2021/12/26 00:11:12;;;;;;;42.67;19.27;;;3.10;62.90;;;;;;5028073;28;20052;-76
2021/12/26 00:13:40;;;;;;;37.58;19.15;;;3.10;63.20;;;;;;5033647;28;20064;-75
2021/12/26 00:16:09;;;;;;;43.63;18.73;;;3.10;63.10;;;;;;5028581;28;20056;-75
2021/12/26 00:18:42;;;;;;;49.33;20.55;;;3.10;63.20;;;;;;5027962;28;20053;-74
2021/12/26 00:21:11;;;;;;;33.05;17.48;;;3.10;63.30;;;;;;5031151;28;20409;-74
2021/12/26 00:23:39;;;;;;;54.20;20.85;;;3.10;63.30;;;;;;5031227;28;20172;-75
2021/12/26 00:26:08;;;;;;;55.83;20.15;;;3.10;63.40;;;;;;5029405;28;20061;-74
2021/12/26 00:28:37;;;;;;;58.35;20.67;;;3.10;63.40;;;;;;5016895;28;20041;-75
2021/12/26 00:31:06;;;;;;;39.97;20.50;;;3.10;63.30;;;;;;5027619;28;20527;-75
2021/12/26 00:33:34;;;;;;;41.85;20.88;;;3.10;63.30;;;;;;5030971;28;20540;-75
2021/12/26 00:36:03;;;;;;;41.10;20.27;;;3.10;63.30;;;;;;5013746;28;20449;-75
2021/12/26 00:38:32;;;;;;;53.03;21.40;;;3.10;63.20;;;;;;5033190;28;20495;-74
2021/12/26 00:41:01;;;;;;;38.15;19.67;;;3.00;63.30;;;;;;5031055;28;21949;-74
2021/12/26 00:43:30;;;;;;;94.32;23.65;;;3.00;63.40;;;;;;5029922;28;20057;-75
2021/12/26 00:46:01;;;;;;;46.38;21.58;;;3.00;63.40;;;;;;5014918;28;20120;-75
2021/12/26 00:48:30;;;;;;;40.20;20.02;;;3.00;63.60;;;;;;5032964;28;20047;-76
2021/12/26 00:50:58;;;;;;;49.10;20.83;;;3.00;63.60;;;;;;5032910;28;20136;-75
2021/12/26 00:53:28;;;;;;;65.95;22.58;;;3.00;63.50;;;;;;5026497;28;20596;-75
2021/12/26 00:55:56;;;;;;;63.70;20.02;;;3.00;63.40;;;;;;5009509;28;20068;-75
2021/12/26 00:58:24;;;;;;;69.85;22.15;;;2.90;63.50;;;;;;5028441;28;20900;-75
2021/12/26 01:00:53;;;;;;;47.17;21.40;;;2.90;63.80;;;;;;5033931;28;20041;-74
2021/12/26 01:03:22;;;;;;;46.97;21.63;;;2.90;64.10;;;;;;5029530;28;20038;-76
2021/12/26 01:05:54;;;;;;;42.60;19.90;;;2.90;64.10;;;;;;5038494;28;20186;-76
2021/12/26 01:08:25;;;;;;;53.38;20.75;;;2.90;64.10;;;;;;5032619;28;20127;-76
2021/12/26 01:10:57;;;;;;;39.88;19.90;;;3.00;64.40;;;;;;5029184;28;20053;-76
2021/12/26 01:13:30;;;;;;;40.58;21.02;;;2.90;64.30;;;;;;5028929;28;20040;-75
2021/12/26 01:16:05;;;;;;;38.65;19.92;;;2.90;64.30;;;;;;5027782;28;20069;-75
2021/12/26 01:18:35;;;;;;;44.58;20.95;;;3.00;64.40;;;;;;5029435;28;20095;-76
2021/12/26 01:21:16;;;;;;;36.53;19.70;;;3.00;64.10;;;;;;5032191;28;20091;-75
2021/12/26 01:23:44;;;;;;;42.03;21.00;;;2.90;63.90;;;;;;5025908;28;20132;-74
2021/12/26 01:26:16;;;;;;;43.65;19.30;;;3.00;64.10;;;;;;5029992;28;20738;-76
2021/12/26 01:28:44;;;;;;;37.97;19.35;;;3.00;64.30;;;;;;5030588;28;20132;-75
2021/12/26 01:31:18;;;;;;;42.78;20.55;;;3.00;64.60;;;;;;5026921;28;20053;-76
2021/12/26 01:33:47;;;;;;;47.00;20.33;;;3.10;64.50;;;;;;5027517;28;20107;-75
2021/12/26 01:36:15;;;;;;;38.80;18.83;;;3.00;64.40;;;;;;5032080;28;20045;-74
2021/12/26 01:38:45;;;;;;;33.53;19.35;;;3.00;63.60;;;;;;5030467;28;20045;-74
2021/12/26 01:41:16;;;;;;;37.20;19.58;;;3.00;63.80;;;;;;5028421;28;20128;-75
2021/12/26 01:43:47;;;;;;;41.53;20.52;;;3.00;64.00;;;;;;5030223;28;20053;-76
2021/12/26 01:46:17;;;;;;;42.53;19.85;;;3.00;64.80;;;;;;5014394;28;20054;-75
2021/12/26 01:48:45;;;;;;;42.55;20.80;;;3.00;64.30;;;;;;5031650;28;20046;-75
2021/12/26 01:51:13;;;;;;;42.33;20.13;;;3.00;64.50;;;;;;5030688;28;20042;-74
2021/12/26 01:53:42;;;;;;;44.10;19.92;;;3.00;64.50;;;;;;5036952;28;20156;-75
2021/12/26 01:56:14;;;;;;;40.80;19.85;;;3.00;64.50;;;;;;5010648;28;20042;-75
2021/12/26 01:58:44;;;;;;;40.38;20.58;;;3.00;64.50;;;;;;5026010;28;20135;-75
2021/12/26 02:01:16;;;;;;;36.45;18.38;;;3.00;64.00;;;;;;5009079;28;20140;-75
2021/12/26 02:03:44;;;;;;;46.40;21.30;;;3.00;64.30;;;;;;5011636;28;20049;-75
2021/12/26 02:06:13;;;;;;;38.97;19.88;;;3.10;64.50;;;;;;5010564;28;20107;-75
2021/12/26 02:08:41;;;;;;;36.63;18.38;;;3.10;64.60;;;;;;5026431;28;20049;-75
2021/12/26 02:11:10;;;;;;;38.92;19.67;;;3.00;64.10;;;;;;5027048;28;20057;-75
2021/12/26 02:13:38;;;;;;;37.45;18.67;;;3.00;63.70;;;;;;5025413;28;20052;-75
2021/12/26 02:16:07;;;;;;;32.47;17.67;;;3.00;64.00;;;;;;5027066;28;20045;-75
2021/12/26 02:18:37;;;;;;;35.78;18.52;;;3.00;64.10;;;;;;5028423;28;20053;-75
2021/12/26 02:21:17;;;;;;;37.85;19.10;;;3.00;64.10;;;;;;5026189;28;20030;-74
2021/12/26 02:23:53;;;;;;;35.20;17.95;;;3.00;63.90;;;;;;5027616;28;20085;-74
2021/12/26 02:29:07;;;;;;;33.38;17.05;;;3.00;63.80;;;;;;5032717;28;20122;-75
2021/12/26 02:31:35;;;;;;;35.67;17.90;;;3.00;63.90;;;;;;5029321;28;20048;-74
2021/12/26 02:34:03;;;;;;;34.38;16.90;;;3.00;63.90;;;;;;5025888;28;20080;-75
2021/12/26 02:36:33;;;;;;;39.05;18.67;;;2.90;63.60;;;;;;5026096;28;20049;-75
2021/12/26 02:39:03;;;;;;;32.05;17.35;;;3.00;63.80;;;;;;5031918;28;20095;-75
2021/12/26 02:41:35;;;;;;;34.70;18.60;;;2.90;64.20;;;;;;5026099;28;20034;-75
2021/12/26 02:44:04;;;;;;;34.38;16.88;;;3.00;63.70;;;;;;5025019;28;20521;-76
2021/12/26 02:46:32;;;;;;;33.90;17.02;;;2.90;63.40;;;;;;5024838;28;20556;-75
2021/12/26 02:49:01;;;;;;;31.20;16.58;;;3.00;64.00;;;;;;5028220;28;20049;-75
2021/12/26 02:51:29;;;;;;;42.95;18.33;;;3.00;63.50;;;;;;5031409;28;20094;-75
2021/12/26 02:53:59;;;;;;;31.77;17.27;;;3.00;64.10;;;;;;5028871;28;20041;-76
2021/12/26 02:56:29;;;;;;;33.05;17.30;;;2.90;63.00;;;;;;5007691;28;20068;-75
2021/12/26 02:58:57;;;;;;;32.42;16.67;;;3.00;63.70;;;;;;5026160;28;20057;-75
2021/12/26 03:01:29;;;;;;;37.40;18.40;;;3.00;63.50;;;;;;5006599;28;20049;-74
2021/12/26 03:03:59;;;;;;;32.55;16.88;;;3.00;63.30;;;;;;5028551;28;20047;-74
2021/12/26 03:06:38;;;;;;;33.80;18.00;;;3.00;63.60;;;;;;5023789;28;20069;-75
2021/12/26 03:09:07;;;;;;;33.78;17.90;;;3.00;63.90;;;;;;5026075;28;20041;-75
2021/12/26 03:11:38;;;;;;;37.92;17.50;;;3.00;63.40;;;;;;5026477;28;20087;-75
2021/12/26 03:14:07;;;;;;;33.40;17.77;;;3.00;63.40;;;;;;5026321;28;20087;-75
2021/12/26 03:16:35;;;;;;;31.65;16.60;;;3.00;63.40;;;;;;5033470;28;20117;-75
2021/12/26 03:19:03;;;;;;;33.38;18.17;;;2.90;63.00;;;;;;5034919;28;20049;-76
2021/12/26 03:21:33;;;;;;;35.25;18.55;;;3.00;63.60;;;;;;5036678;28;20445;-75
2021/12/26 03:24:01;;;;;;;32.00;17.88;;;2.90;63.40;;;;;;5015507;28;20033;-75
2021/12/26 03:26:31;;;;;;;34.72;18.15;;;2.90;63.80;;;;;;5031470;28;20055;-75
2021/12/26 03:28:59;;;;;;;29.23;16.77;;;2.90;63.80;;;;;;5025522;28;20053;-76
2021/12/26 03:31:27;;;;;;;33.53;16.52;;;2.90;63.50;;;;;;5025193;28;20709;-76
2021/12/26 03:33:55;;;;;;;34.50;17.05;;;2.90;63.80;;;;;;5027122;28;20050;-75
2021/12/26 03:36:23;;;;;;;33.72;17.92;;;2.90;63.50;;;;;;5026471;28;20060;-75
2021/12/26 03:38:51;;;;;;;34.17;17.17;;;2.90;63.90;;;;;;5026411;28;20033;-75
2021/12/26 03:41:20;;;;;;;35.70;18.52;;;2.90;64.00;;;;;;5008044;28;20141;-76
2021/12/26 03:43:50;;;;;;;34.53;18.63;;;2.90;64.10;;;;;;5029582;28;20081;-76
2021/12/26 03:46:18;;;;;;;37.25;18.25;;;2.90;63.50;;;;;;5027556;28;20419;-76
2021/12/26 03:48:46;;;;;;;37.10;18.40;;;2.90;64.10;;;;;;5026409;28;20045;-76
2021/12/26 03:51:15;;;;;;;33.80;17.92;;;2.90;64.00;;;;;;5026702;28;20152;-75
2021/12/26 03:53:43;;;;;;;33.67;17.60;;;2.90;63.50;;;;;;5025115;28;20053;-75
2021/12/26 03:56:12;;;;;;;36.47;18.45;;;2.90;64.00;;;;;;5027791;28;20072;-76
2021/12/26 03:58:42;;;;;;;38.17;19.38;;;2.90;63.80;;;;;;5005785;28;20037;-76
2021/12/26 04:01:11;;;;;;;34.45;17.73;;;3.00;63.80;;;;;;5027168;28;20041;-76
2021/12/26 04:03:39;;;;;;;36.10;17.92;;;3.00;63.80;;;;;;5024694;28;20057;-76
2021/12/26 04:06:07;;;;;;;33.55;16.77;;;2.90;63.80;;;;;;5012222;28;20527;-75
2021/12/26 04:08:35;;;;;;;36.80;17.92;;;2.90;64.00;;;;;;5028742;28;20068;-75
2021/12/26 04:11:04;;;;;;;39.00;18.38;;;3.00;63.60;;;;;;5008316;28;20099;-75
2021/12/26 04:13:34;;;;;;;36.30;18.20;;;3.00;64.20;;;;;;5027783;28;20050;-75
2021/12/26 04:16:02;;;;;;;51.78;18.33;;;3.10;64.30;;;;;;5027154;28;20632;-76
2021/12/26 04:18:31;;;;;;;33.70;18.10;;;3.00;62.70;;;;;;5030807;28;20208;-75
2021/12/26 04:20:59;;;;;;;35.10;18.10;;;2.90;64.00;;;;;;5026282;28;20703;-75
2021/12/26 04:23:27;;;;;;;48.20;18.55;;;3.00;64.00;;;;;;5018781;28;20143;-75
2021/12/26 04:25:55;;;;;;;35.45;17.48;;;2.90;63.70;;;;;;5026123;28;20053;-75
2021/12/26 04:28:23;;;;;;;35.67;16.77;;;3.00;63.50;;;;;;5026113;28;20053;-75
2021/12/26 04:30:53;;;;;;;32.75;17.33;;;2.90;63.40;;;;;;5027493;28;20079;-75
2021/12/26 04:33:22;;;;;;;36.65;16.83;;;2.90;63.90;;;;;;5031140;28;20049;-75
2021/12/26 04:35:51;;;;;;;34.53;17.70;;;2.90;63.60;;;;;;5028388;28;20084;-75
2021/12/26 04:38:20;;;;;;;36.03;16.20;;;3.00;63.80;;;;;;5030295;28;20069;-75
2021/12/26 04:40:50;;;;;;;35.67;17.38;;;3.00;63.90;;;;;;5002160;28;20131;-74
2021/12/26 04:43:20;;;;;;;34.67;16.17;;;3.00;63.90;;;;;;5033290;28;20346;-75
2021/12/26 04:45:48;;;;;;;32.53;17.42;;;2.90;63.50;;;;;;5034337;28;20049;-75
2021/12/26 04:48:17;;;;;;;33.85;16.50;;;3.00;63.70;;;;;;5027548;28;20052;-75
2021/12/26 04:50:45;;;;;;;32.47;16.63;;;3.00;63.40;;;;;;5033267;28;20041;-75
2021/12/26 04:53:14;;;;;;;28.05;15.23;;;3.00;63.50;;;;;;5029508;28;20299;-74
2021/12/26 04:55:42;;;;;;;29.55;17.10;;;2.90;63.50;;;;;;5028180;28;20569;-75
2021/12/26 04:58:10;;;;;;;28.90;15.88;;;3.00;63.70;;;;;;5029099;28;20067;-74
2021/12/26 05:00:38;;;;;;;30.38;16.02;;;3.00;63.80;;;;;;5032927;28;20128;-74
2021/12/26 05:03:08;;;;;;;29.95;15.88;;;3.00;63.90;;;;;;5032884;28;20136;-75
2021/12/26 05:05:37;;;;;;;27.48;14.85;;;3.00;63.90;;;;;;5007860;28;20063;-75
2021/12/26 05:08:06;;;;;;;28.38;15.38;;;3.10;64.10;;;;;;5021836;28;20038;-74
2021/12/26 05:10:35;;;;;;;28.40;15.35;;;3.10;63.90;;;;;;5003267;28;20196;-74
2021/12/26 05:13:04;;;;;;;28.27;15.52;;;3.10;64.00;;;;;;5018946;28;20049;-74
2021/12/26 05:15:34;;;;;;;28.02;15.77;;;3.10;63.70;;;;;;5017285;28;20076;-75
2021/12/26 05:18:04;;;;;;;31.25;15.90;;;3.10;63.90;;;;;;5018671;28;20042;-75
2021/12/26 05:20:33;;;;;;;32.58;16.38;;;3.10;63.60;;;;;;5022416;28;20596;-74
2021/12/26 05:23:01;;;;;;;29.30;15.30;;;3.10;63.30;;;;;;5018272;28;20084;-75
2021/12/26 05:25:29;;;;;;;30.10;15.35;;;3.20;64.00;;;;;;4997051;28;20050;-74
2021/12/26 05:27:59;;;;;;;26.85;14.27;;;3.30;64.20;;;;;;5010066;28;20426;-75
2021/12/26 05:30:28;;;;;;;26.05;14.65;;;3.20;63.40;;;;;;5028913;28;20038;-74
2021/12/26 05:33:00;;;;;;;25.67;13.40;;;3.10;61.70;;;;;;5027214;28;20120;-75
2021/12/26 05:35:28;;;;;;;28.45;15.10;;;3.20;62.90;;;;;;5028001;28;20052;-74
2021/12/26 05:37:56;;;;;;;26.95;15.10;;;3.20;62.70;;;;;;5026327;28;20121;-75
2021/12/26 05:40:26;;;;;;;30.90;17.27;;;3.20;62.20;;;;;;5007781;28;20602;-75
2021/12/26 05:42:54;;;;;;;28.58;14.85;;;3.20;62.10;;;;;;5036327;28;20053;-75
2021/12/26 05:45:23;;;;;;;28.90;16.48;;;3.20;62.50;;;;;;5026708;28;20527;-75
2021/12/26 05:47:52;;;;;;;26.50;15.55;;;3.20;61.50;;;;;;5027900;28;20068;-75
2021/12/26 05:50:21;;;;;;;25.02;13.27;;;3.20;62.00;;;;;;5026494;28;20073;-75
2021/12/26 05:52:50;;;;;;;25.65;15.10;;;3.20;61.40;;;;;;5009327;28;20049;-75
2021/12/26 05:55:18;;;;;;;25.58;14.27;;;3.20;62.40;;;;;;5027586;28;20053;-76
2021/12/26 05:57:50;;;;;;;26.27;13.80;;;3.20;62.00;;;;;;5034454;28;20033;-76
2021/12/26 06:00:20;;;;;;;23.58;13.13;;;3.20;61.50;;;;;;5026805;28;20057;-75
2021/12/26 06:02:50;;;;;;;28.67;15.52;;;3.30;62.30;;;;;;5026366;28;20048;-76
2021/12/26 06:05:20;;;;;;;30.17;15.55;;;3.30;61.80;;;;;;5027827;28;20091;-75
2021/12/26 06:07:50;;;;;;;27.77;15.32;;;3.40;62.40;;;;;;5010130;28;20543;-74
2021/12/26 06:10:18;;;;;;;29.88;16.40;;;3.40;62.10;;;;;;5025890;28;20063;-75
2021/12/26 06:12:46;;;;;;;32.15;15.65;;;3.40;62.20;;;;;;5012454;28;20055;-77
2021/12/26 06:15:15;;;;;;;28.42;15.52;;;3.40;62.30;;;;;;5028483;28;20124;-75
2021/12/26 06:17:44;;;;;;;29.42;15.07;;;3.30;60.80;;;;;;5025133;28;20045;-75
2021/12/26 06:20:14;;;;;;;30.65;15.98;;;3.20;60.60;;;;;;5009815;28;20108;-75
2021/12/26 06:22:44;;;;;;;28.65;14.77;;;3.30;61.10;;;;;;5027633;28;20128;-75
2021/12/26 06:25:14;;;;;;;30.85;15.75;;;3.30;61.30;;;;;;5008088;28;20131;-75
2021/12/26 06:27:42;;;;;;;33.65;15.82;;;3.30;60.80;;;;;;5027854;28;20052;-75
2021/12/26 06:30:11;;;;;;;31.67;16.95;;;3.30;60.90;;;;;;5023897;28;20041;-75
2021/12/26 06:32:40;;;;;;;27.67;15.90;;;3.20;60.70;;;;;;5028445;28;20076;-75
2021/12/26 06:35:10;;;;;;;25.08;13.80;;;3.20;60.70;;;;;;5026438;28;20053;-73
2021/12/26 06:37:39;;;;;;;28.00;15.35;;;3.20;60.70;;;;;;5031142;28;20038;-75
2021/12/26 06:40:10;;;;;;;24.95;13.73;;;3.30;61.40;;;;;;5026077;28;20053;-75
2021/12/26 06:42:41;;;;;;;28.30;15.77;;;3.30;61.60;;;;;;5030210;28;20049;-74
2021/12/26 06:45:11;;;;;;;26.95;15.05;;;3.40;61.70;;;;;;5024948;28;20045;-74
2021/12/26 06:47:39;;;;;;;28.60;16.23;;;3.30;60.90;;;;;;5031756;28;20076;-74
2021/12/26 06:50:08;;;;;;;33.70;17.45;;;3.30;60.70;;;;;;5030607;28;20059;-74
2021/12/26 06:52:36;;;;;;;33.45;17.52;;;3.30;60.80;;;;;;5009073;28;20133;-74
2021/12/26 06:55:07;;;;;;;34.20;16.30;;;3.30;61.30;;;;;;5025857;28;20057;-74
2021/12/26 06:57:35;;;;;;;28.77;15.75;;;3.20;60.90;;;;;;5031499;28;20127;-75
2021/12/26 07:00:05;;;;;;;33.95;16.80;;;3.20;61.50;;;;;;5027860;28;20378;-74
2021/12/26 07:02:33;;;;;;;31.67;16.55;;;3.20;61.40;;;;;;5031236;28;20049;-74
2021/12/26 07:05:01;;;;;;;35.10;16.52;;;3.20;61.10;;;;;;5028013;28;20041;-75
2021/12/26 07:07:29;;;;;;;34.88;18.05;;;3.20;61.70;;;;;;5027845;28;20053;-74
2021/12/26 07:09:58;;;;;;;34.75;16.90;;;3.20;61.90;;;;;;5027963;28;20168;-75
2021/12/26 07:12:30;;;;;;;32.13;15.05;;;3.20;61.50;;;;;;5029430;28;20128;-76
2021/12/26 07:14:58;;;;;;;34.47;17.08;;;3.30;61.50;;;;;;5025925;28;20132;-75
2021/12/26 07:17:26;;;;;;;36.60;17.52;;;3.20;61.70;;;;;;5030432;28;20079;-76
2021/12/26 07:19:54;;;;;;;35.65;17.15;;;3.20;62.20;;;;;;5024024;28;20055;-75
2021/12/26 07:22:22;;;;;;;36.10;17.15;;;3.20;60.70;;;;;;5025295;28;20065;-75
2021/12/26 07:24:50;;;;;;;38.92;18.45;;;3.10;61.30;;;;;;5027761;28;20033;-75
2021/12/26 07:27:18;;;;;;;38.70;18.55;;;3.20;62.50;;;;;;5027094;28;20056;-75
2021/12/26 07:29:47;;;;;;;56.42;20.60;;;3.20;62.60;;;;;;5025693;28;20132;-75
2021/12/26 07:32:16;;;;;;;48.17;20.20;;;3.20;62.10;;;;;;5029015;28;20041;-75
2021/12/26 07:34:44;;;;;;;52.92;19.73;;;3.20;62.60;;;;;;5028742;28;20124;-74
2021/12/26 07:37:12;;;;;;;42.60;21.08;;;3.20;62.50;;;;;;5024547;28;20045;-74
2021/12/26 07:39:40;;;;;;;40.15;19.05;;;3.20;62.60;;;;;;5030524;28;20505;-74
2021/12/26 07:42:09;;;;;;;44.90;21.10;;;3.20;62.70;;;;;;5027155;28;20060;-74
2021/12/26 07:44:38;;;;;;;68.57;20.83;;;3.20;62.90;;;;;;5026310;28;20463;-74
2021/12/26 07:47:09;;;;;;;45.00;20.75;;;3.20;62.40;;;;;;5023894;28;20049;-74
2021/12/26 07:49:37;;;;;;;37.35;19.00;;;3.20;63.30;;;;;;5026234;28;20481;-74
2021/12/26 07:52:12;;;;;;;47.63;20.60;;;3.20;63.20;;;;;;5026827;28;20056;-75
2021/12/26 07:54:42;;;;;;;46.20;20.88;;;3.30;63.10;;;;;;5025163;28;20116;-75
2021/12/26 07:57:12;;;;;;;46.60;20.35;;;3.20;62.40;;;;;;5026835;28;20437;-74
2021/12/26 07:59:41;;;;;;;38.92;20.35;;;3.20;61.80;;;;;;5025411;28;20056;-74
2021/12/26 08:02:20;;;;;;;40.72;18.88;;;3.20;62.90;;;;;;5025469;28;20050;-75
2021/12/26 08:04:49;;;;;;;38.22;17.92;;;3.20;62.70;;;;;;5021687;28;20088;-75
2021/12/26 08:07:21;;;;;;;38.58;19.08;;;3.30;63.20;;;;;;5035367;28;20509;-75
2021/12/26 08:09:49;;;;;;;45.00;20.73;;;3.30;62.80;;;;;;5027373;28;20563;-75
2021/12/26 08:12:20;;;;;;;45.67;20.17;;;3.30;63.90;;;;;;5029134;28;20630;-75
2021/12/26 08:14:48;;;;;;;49.72;22.25;;;3.40;63.70;;;;;;5032344;28;20049;-75
2021/12/26 08:17:18;;;;;;;65.30;29.73;;;3.30;63.00;;;;;;5029102;28;20539;-75
2021/12/26 08:19:46;;;;;;;82.68;36.78;;;3.30;62.70;;;;;;5031731;28;20136;-75
2021/12/26 08:22:16;;;;;;;63.60;30.02;;;3.30;62.70;;;;;;5030440;28;20571;-75
2021/12/26 08:24:44;;;;;;;42.30;20.50;;;3.40;63.30;;;;;;5014468;28;20072;-75
2021/12/26 08:27:12;;;;;;;47.42;20.88;;;3.40;63.20;;;;;;5030728;28;20057;-76
2021/12/26 08:29:40;;;;;;;38.97;19.27;;;3.40;63.50;;;;;;5034528;28;20113;-75
2021/12/26 08:32:12;;;;;;;42.42;20.35;;;3.50;63.40;;;;;;5030293;28;20049;-75
2021/12/26 08:34:43;;;;;;;43.25;20.60;;;3.50;63.30;;;;;;5028285;28;20111;-75
2021/12/26 08:37:13;;;;;;;43.90;20.38;;;3.50;63.40;;;;;;5031305;28;20103;-75
2021/12/26 08:39:44;;;;;;;36.25;19.15;;;3.50;63.50;;;;;;5027133;28;20037;-75
2021/12/26 08:42:14;;;;;;;42.85;19.80;;;3.60;63.80;;;;;;5029587;28;20038;-75
2021/12/26 08:44:42;;;;;;;39.17;19.52;;;3.60;62.50;;;;;;5031761;28;20061;-75
2021/12/26 08:47:13;;;;;;;37.78;19.63;;;3.50;61.10;;;;;;5028591;28;20038;-75
2021/12/26 08:49:42;;;;;;;38.08;19.52;;;3.50;61.10;;;;;;5029678;28;20188;-75
2021/12/26 08:52:10;;;;;;;38.58;19.95;;;3.60;62.20;;;;;;5034242;28;20064;-74
2021/12/26 08:54:40;;;;;;;37.47;18.60;;;3.70;63.60;;;;;;5031512;28;20127;-74
2021/12/26 08:57:09;;;;;;;42.00;19.20;;;3.80;63.60;;;;;;5029187;28;20059;-74
2021/12/26 08:59:37;;;;;;;39.60;19.35;;;3.90;64.00;;;;;;5026874;28;20064;-74
2021/12/26 09:02:07;;;;;;;34.08;17.73;;;3.90;62.60;;;;;;5027710;28;20136;-75
2021/12/26 09:04:37;;;;;;;34.58;18.50;;;4.10;63.70;;;;;;5026227;28;20068;-75
2021/12/26 09:07:07;;;;;;;33.92;18.60;;;4.10;64.10;;;;;;5029698;28;20050;-75
2021/12/26 09:09:35;;;;;;;34.53;16.88;;;4.30;63.90;;;;;;5015470;28;20597;-75
2021/12/26 09:12:05;;;;;;;31.98;17.35;;;4.40;63.50;;;;;;5032028;28;20076;-75
2021/12/26 09:14:33;;;;;;;34.45;17.08;;;4.30;62.90;;;;;;5012971;28;20052;-75
2021/12/26 09:17:02;;;;;;;32.05;16.20;;;4.40;62.50;;;;;;5028933;28;20044;-75
2021/12/26 09:19:34;;;;;;;32.75;16.88;;;4.50;61.80;;;;;;5028736;28;20045;-75
2021/12/26 09:22:06;;;;;;;31.00;16.30;;;4.40;61.50;;;;;;5032111;28;20589;-75
2021/12/26 09:24:35;;;;;;;30.38;16.70;;;4.50;61.60;;;;;;5027172;28;20048;-75
2021/12/26 09:27:04;;;;;;;31.65;16.23;;;4.60;61.00;;;;;;5026692;28;20128;-75
2021/12/26 09:29:33;;;;;;;31.42;17.08;;;4.70;60.70;;;;;;5032926;28;20083;-75
2021/12/26 09:32:02;;;;;;;31.02;16.30;;;4.60;59.50;;;;;;5030128;28;20059;-75
2021/12/26 09:34:33;;;;;;;27.60;14.85;;;4.70;59.30;;;;;;5028841;28;20042;-76
2021/12/26 09:37:03;;;;;;;27.08;14.68;;;4.70;58.10;;;;;;5028843;28;20051;-76
2021/12/26 09:39:33;;;;;;;25.17;14.07;;;4.80;58.30;;;;;;5027390;28;20069;-75
2021/12/26 09:42:01;;;;;;;24.77;14.38;;;4.90;58.10;;;;;;5028476;28;20121;-75
2021/12/26 09:44:29;;;;;;;24.90;14.43;;;5.00;57.40;;;;;;5027742;28;20550;-75
2021/12/26 09:46:57;;;;;;;24.63;13.73;;;5.20;56.70;;;;;;5026220;28;20132;-75
2021/12/26 09:49:25;;;;;;;27.17;16.33;;;5.20;55.70;;;;;;5027213;28;20136;-75
2021/12/26 09:51:53;;;;;;;22.65;13.10;;;5.20;55.40;;;;;;5028260;28;20045;-76
2021/12/26 09:54:21;;;;;;;21.77;12.23;;;5.30;54.50;;;;;;5025886;28;20041;-76
2021/12/26 09:56:51;;;;;;;20.65;13.30;;;5.30;54.30;;;;;;5029599;28;20132;-76
2021/12/26 09:59:22;;;;;;;20.58;12.75;;;5.30;52.70;;;;;;5030791;28;20559;-76
2021/12/26 10:01:53;;;;;;;22.08;12.75;;;5.30;52.10;;;;;;5013052;28;20084;-76
2021/12/26 10:04:43;;;;;;;23.80;13.57;;;5.40;51.50;;;;;;5025096;28;20565;-75
2021/12/26 10:07:15;;;;;;;20.98;12.85;;;5.50;51.20;;;;;;5027199;28;20775;-77
2021/12/26 10:09:46;;;;;;;21.95;12.73;;;5.50;50.20;;;;;;5030134;28;20064;-75
2021/12/26 10:12:24;;;;;;;21.58;12.90;;;5.50;49.70;;;;;;5012327;28;20060;-75
2021/12/26 10:14:54;;;;;;;19.10;11.63;;;5.50;49.20;;;;;;5028409;28;20037;-75
2021/12/26 10:17:26;;;;;;;21.25;12.05;;;5.60;49.40;;;;;;5027978;28;20049;-75
2021/12/26 10:20:03;;;;;;;22.58;12.73;;;5.60;49.10;;;;;;5029203;28;20053;-76
2021/12/26 10:22:31;;;;;;;22.27;12.18;;;5.70;49.10;;;;;;5031914;28;20046;-76
2021/12/26 10:25:09;;;;;;;19.48;11.95;;;5.70;47.10;;;;;;5026584;28;20121;-77
2021/12/26 10:27:41;;;;;;;20.73;12.00;;;5.80;48.50;;;;;;5028809;28;20329;-76
2021/12/26 10:30:15;;;;;;;21.20;11.70;;;5.70;47.30;;;;;;5032382;28;20085;-76
2021/12/26 10:32:47;;;;;;;20.42;12.25;;;5.80;48.40;;;;;;5031782;28;20037;-75
2021/12/26 10:35:17;;;;;;;21.67;13.02;;;5.70;47.30;;;;;;5025356;28;20745;-77
2021/12/26 10:37:50;;;;;;;21.95;12.15;;;5.80;48.30;;;;;;5026543;28;20497;-75
2021/12/26 10:40:21;;;;;;;23.33;13.55;;;6.00;48.20;;;;;;5024105;28;20509;-74
2021/12/26 10:42:53;;;;;;;22.98;12.75;;;6.00;47.10;;;;;;5009953;28;20069;-77
2021/12/26 10:45:24;;;;;;;20.83;13.07;;;5.80;45.00;;;;;;5025443;28;20406;-74
2021/12/26 10:47:54;;;;;;;21.25;12.55;;;5.70;46.90;;;;;;5027312;28;20045;-75
2021/12/26 10:50:25;;;;;;;23.13;13.02;;;5.60;48.00;;;;;;5025918;28;20132;-75
2021/12/26 10:52:55;;;;;;;22.85;14.55;;;5.70;49.10;;;;;;5027560;28;20136;-77
2021/12/26 10:55:29;;;;;;;26.90;14.43;;;5.70;48.50;;;;;;5024574;28;20091;-75
2021/12/26 10:58:01;;;;;;;24.90;15.35;;;5.70;49.30;;;;;;5026334;28;20045;-75
2021/12/26 11:00:32;;;;;;;25.92;14.48;;;5.50;49.10;;;;;;5025744;28;20048;-76
2021/12/26 11:03:04;;;;;;;24.17;15.07;;;5.60;50.70;;;;;;5031408;28;20053;-76
2021/12/26 11:05:36;;;;;;;26.15;15.15;;;5.60;50.80;;;;;;5024350;28;20069;-76
2021/12/26 11:08:05;;;;;;;25.88;15.20;;;5.60;50.80;;;;;;5025646;28;20049;-75
2021/12/26 11:10:35;;;;;;;26.33;15.25;;;5.70;51.50;;;;;;5027067;28;20233;-76
2021/12/26 11:13:07;;;;;;;23.42;14.27;;;5.80;51.90;;;;;;5028594;28;20045;-75
2021/12/26 11:15:37;;;;;;;25.15;14.45;;;6.00;51.10;;;;;;5028014;28;20051;-76
2021/12/26 11:18:07;;;;;;;23.63;14.30;;;5.90;51.00;;;;;;5029713;28;20569;-76
2021/12/26 11:20:37;;;;;;;25.27;14.05;;;5.90;49.50;;;;;;5026486;28;20546;-76
2021/12/26 11:23:10;;;;;;;28.60;16.15;;;6.00;50.10;;;;;;5025349;28;20520;-76
2021/12/26 11:25:40;;;;;;;24.48;14.45;;;5.90;50.00;;;;;;5025051;28;20129;-75
2021/12/26 11:28:11;;;;;;;25.27;14.43;;;6.00;50.20;;;;;;5025660;28;20053;-76
2021/12/26 11:30:40;;;;;;;25.00;14.25;;;6.10;49.30;;;;;;5025360;28;20037;-75
2021/12/26 11:33:10;;;;;;;24.38;14.40;;;6.00;48.90;;;;;;5026415;28;20049;-76
2021/12/26 11:35:40;;;;;;;23.13;13.65;;;6.00;49.10;;;;;;5026112;28;20037;-76
2021/12/26 11:38:10;;;;;;;27.63;15.10;;;6.10;49.80;;;;;;5027025;28;20152;-77
2021/12/26 11:40:41;;;;;;;21.85;13.85;;;6.20;50.80;;;;;;5031422;28;20040;-74
2021/12/26 11:43:52;;;;;;;23.58;13.32;;;6.30;49.20;;;;;;5030646;28;20172;-75
2021/12/26 11:46:34;;;;;;;22.58;13.73;;;6.30;49.70;;;;;;5012227;28;20045;-75
2021/12/26 11:49:26;;;;;;;24.80;15.10;;;6.30;49.60;;;;;;5029835;28;20509;-75
2021/12/26 11:52:06;;;;;;;24.33;15.18;;;6.30;50.40;;;;;;5035430;28;20055;-75
2021/12/26 11:54:57;;;;;;;26.73;15.68;;;6.30;50.40;;;;;;5035067;28;20041;-77
2021/12/26 11:58:00;;;;;;;26.33;15.02;;;6.30;51.00;;;;;;5034313;28;20045;-75
2021/12/26 12:00:35;;;;;;;23.98;15.07;;;6.40;50.50;;;;;;5026297;28;20059;-76
2021/12/26 12:03:04;;;;;;;23.17;14.25;;;6.40;51.40;;;;;;5026180;28;20053;-76
2021/12/26 12:05:37;;;;;;;22.52;13.85;;;6.50;51.20;;;;;;5020294;28;20112;-75
2021/12/26 12:08:08;;;;;;;22.93;14.00;;;6.50;51.60;;;;;;5022253;28;20104;-75
2021/12/26 12:10:48;;;;;;;21.10;13.23;;;6.50;51.30;;;;;;5015558;28;20108;-76
2021/12/26 12:13:48;;;;;;;19.70;12.75;;;6.50;50.60;;;;;;5011243;28;20053;-76
2021/12/26 12:16:36;;;;;;;21.95;13.88;;;6.70;50.90;;;;;;5010147;28;20056;-76
2021/12/26 12:19:11;;;;;;;22.08;13.85;;;6.80;48.90;;;;;;5014190;28;20053;-76
2021/12/26 12:21:44;;;;;;;21.73;14.40;;;6.80;48.30;;;;;;5011185;28;20038;-76
2021/12/26 12:24:14;;;;;;;23.00;12.07;;;6.80;49.00;;;;;;5006911;28;20281;-76
2021/12/26 12:26:52;;;;;;;18.40;11.55;;;6.80;47.90;;;;;;5012306;28;20049;-75
2021/12/26 12:29:46;;;;;;;17.52;11.38;;;6.70;48.10;;;;;;5012999;28;20112;-75
2021/12/26 12:32:18;;;;;;;17.05;11.68;;;6.80;49.10;;;;;;5018730;28;20114;-76
2021/12/26 12:34:51;;;;;;;18.58;11.10;;;6.70;48.40;;;;;;5028768;28;20038;-76
2021/12/26 12:37:32;;;;;;;18.05;11.63;;;6.60;49.40;;;;;;5030348;28;20077;-76
2021/12/26 12:40:17;;;;;;;18.20;12.30;;;6.70;51.10;;;;;;5026234;28;20045;-76
2021/12/26 12:42:58;;;;;;;;;;;6.70;50.60;;;;;;5031953;28;20053;-75
2021/12/26 12:45:27;;;;;;;16.23;11.32;;;6.70;50.90;;;;;;5035422;28;19929;-76
2021/12/26 12:48:22;;;;;;;21.05;12.23;;;6.70;50.90;;;;;;5030059;28;20057;-76
2021/12/26 12:50:53;;;;;;;18.30;12.20;;;6.80;51.70;;;;;;5026277;28;20119;-75
2021/12/26 12:53:45;;;;;;;20.65;12.35;;;6.70;52.30;;;;;;5028231;28;20138;-75
2021/12/26 12:56:45;;;;;;;20.58;12.48;;;6.70;49.90;;;;;;5034506;28;20124;-76
2021/12/26 12:59:39;;;;;;;21.50;13.43;;;6.80;51.70;;;;;;5029955;28;20481;-76